createdAt,value
2022-08-22T00:01:34.510Z,18.99
2022-08-22T00:02:44.022Z,18.46
2022-08-22T00:03:03.074Z,19.20
2022-08-22T00:03:04.029Z,18.95
2022-08-22T00:04:21.321Z,18.69
2022-08-22T00:07:05.166Z,18.84
2022-08-22T00:09:48.152Z,18.98
2022-08-22T00:12:46.111Z,18.77
2022-08-22T00:15:42.264Z,18.52
2022-08-22T00:18:16.266Z,18.64
2022-08-22T00:20:45.057Z,19.09
2022-08-22T00:23:25.576Z,18.88
2022-08-22T00:26:43.319Z,19.32
2022-08-22T00:29:15.337Z,19.43
2022-08-22T00:32:03.972Z,18.73
2022-08-22T00:34:35.402Z,18.80
2022-08-22T00:37:19.641Z,18.69
2022-08-22T00:39:51.911Z,19.01
2022-08-22T00:42:32.086Z,18.95
2022-08-22T00:45:16.699Z,18.16
2022-08-22T00:48:12.350Z,19.01
2022-08-22T00:51:09.528Z,18.25
2022-08-22T00:53:43.120Z,18.83
2022-08-22T00:56:47.114Z,18.83
2022-08-22T00:59:23.761Z,18.74
2022-08-22T01:02:19.176Z,18.31
2022-08-22T01:05:24.622Z,18.41
2022-08-22T01:07:59.674Z,18.64
2022-08-22T01:10:33.154Z,18.46
2022-08-22T01:13:11.124Z,18.54
2022-08-22T01:15:38.966Z,18.94
2022-08-22T01:18:25.230Z,18.68
2022-08-22T01:21:06.805Z,18.80
2022-08-22T01:23:52.541Z,18.58
2022-08-22T01:26:52.348Z,18.52
2022-08-22T01:29:31.401Z,18.77
2022-08-22T01:32:30.090Z,19.05
2022-08-22T01:35:13.557Z,19.16
2022-08-22T01:38:00.072Z,19.05
2022-08-22T01:40:53.373Z,19.10
2022-08-22T01:43:58.563Z,18.78
2022-08-22T01:46:42.944Z,18.95
2022-08-22T01:49:16.404Z,18.95
2022-08-22T01:51:51.643Z,19.47
2022-08-22T01:54:49.020Z,19.14
2022-08-22T01:57:16.402Z,19.07
2022-08-22T01:59:46.910Z,19.00
2022-08-22T02:02:47.241Z,19.29
2022-08-22T02:05:18.519Z,19.04
2022-08-22T02:07:57.919Z,18.94
2022-08-22T02:10:45.174Z,19.30
2022-08-22T02:13:13.002Z,19.58
2022-08-22T02:15:46.960Z,20.02
2022-08-22T02:18:27.185Z,19.47
2022-08-22T02:21:05.743Z,19.88
2022-08-22T02:23:36.239Z,19.59
2022-08-22T02:26:09.705Z,19.86
2022-08-22T02:28:57.205Z,19.48
2022-08-22T02:31:32.605Z,19.67
2022-08-22T02:34:02.018Z,19.67
2022-08-22T02:36:34.509Z,19.23
2022-08-22T02:39:21.106Z,19.92
2022-08-22T02:42:00.033Z,19.98
2022-08-22T02:44:36.427Z,19.92
2022-08-22T02:47:15.505Z,19.67
2022-08-22T02:49:46.586Z,20.06
2022-08-22T02:52:21.782Z,19.58
2022-08-22T02:54:54.408Z,19.69
2022-08-22T02:57:28.680Z,19.62
2022-08-22T03:00:31.844Z,19.83
2022-08-22T03:03:23.637Z,19.59
2022-08-22T03:06:01.714Z,20.27
2022-08-22T03:08:35.528Z,19.95
2022-08-22T03:11:30.063Z,20.23
2022-08-22T03:14:07.408Z,19.62
2022-08-22T03:17:09.175Z,20.12
2022-08-22T03:19:51.686Z,19.75
2022-08-22T03:22:32.140Z,20.19
2022-08-22T03:25:10.441Z,19.51
2022-08-22T03:27:42.310Z,19.80
2022-08-22T03:30:21.670Z,19.85
2022-08-22T03:32:59.141Z,20.30
2022-08-22T03:35:32.869Z,20.33
2022-08-22T03:38:13.652Z,20.28
2022-08-22T03:41:09.505Z,19.93
2022-08-22T03:44:04.881Z,19.86
2022-08-22T03:46:55.799Z,20.07
2022-08-22T03:49:41.960Z,20.04
2022-08-22T03:52:32.949Z,19.98
2022-08-22T03:55:14.970Z,19.94
2022-08-22T03:58:04.421Z,20.27
2022-08-22T04:00:35.275Z,20.68
2022-08-22T04:03:11.938Z,20.78
2022-08-22T04:05:58.233Z,20.71
2022-08-22T04:08:44.007Z,20.75
2022-08-22T04:11:36.931Z,20.92
2022-08-22T04:14:26.457Z,20.88
2022-08-22T04:16:53.666Z,20.85
2022-08-22T04:19:54.143Z,21.06
2022-08-22T04:22:33.512Z,21.24
2022-08-22T04:25:08.532Z,21.24
2022-08-22T04:27:44.114Z,20.82
2022-08-22T04:30:31.365Z,20.84
2022-08-22T04:33:05.110Z,20.96
2022-08-22T04:35:43.412Z,21.08
2022-08-22T04:38:29.896Z,20.89
2022-08-22T04:41:03.868Z,20.95
2022-08-22T04:43:37.384Z,21.33
2022-08-22T04:46:10.655Z,21.61
2022-08-22T04:48:45.392Z,21.42
2022-08-22T04:51:22.080Z,21.18
2022-08-22T04:54:11.076Z,21.40
2022-08-22T04:57:03.381Z,21.28
2022-08-22T04:59:30.961Z,21.68
2022-08-22T05:02:06.694Z,21.74
2022-08-22T05:04:40.885Z,21.69
2022-08-22T05:07:20.505Z,21.81
2022-08-22T05:09:53.279Z,21.89
2022-08-22T05:12:38.648Z,21.91
2022-08-22T05:15:10.170Z,21.63
2022-08-22T05:17:38.322Z,21.97
2022-08-22T05:20:09.315Z,21.68
2022-08-22T05:22:40.086Z,22.15
2022-08-22T05:25:13.388Z,22.56
2022-08-22T05:27:46.195Z,22.41
2022-08-22T05:30:25.598Z,22.37
2022-08-22T05:33:18.525Z,22.45
2022-08-22T05:35:52.449Z,22.84
2022-08-22T05:38:23.451Z,22.81
2022-08-22T05:40:54.536Z,22.70
2022-08-22T05:43:21.893Z,23.04
2022-08-22T05:45:49.259Z,23.09
2022-08-22T05:48:18.640Z,23.28
2022-08-22T05:50:54.906Z,23.41
2022-08-22T05:53:30.660Z,24.13
2022-08-22T05:56:13.095Z,23.90
2022-08-22T05:58:43.531Z,24.15
2022-08-22T06:01:36.201Z,24.57
2022-08-22T06:04:07.032Z,24.15
2022-08-22T06:06:43.282Z,24.16
2022-08-22T06:09:34.679Z,24.26
2022-08-22T06:12:05.917Z,23.82
2022-08-22T06:14:51.418Z,24.04
2022-08-22T06:17:21.729Z,24.07
2022-08-22T06:19:50.427Z,24.07
2022-08-22T06:22:21.296Z,24.28
2022-08-22T06:24:49.002Z,24.42
2022-08-22T06:27:16.828Z,24.03
2022-08-22T06:29:46.857Z,23.97
2022-08-22T06:32:16.663Z,24.37
2022-08-22T06:35:06.399Z,24.12
2022-08-22T06:37:37.590Z,24.30
2022-08-22T06:40:06.046Z,24.01
2022-08-22T06:42:34.723Z,24.17
2022-08-22T06:45:07.762Z,23.83
2022-08-22T06:47:50.255Z,23.81
2022-08-22T06:50:36.123Z,24.11
2022-08-22T06:53:23.174Z,24.49
2022-08-22T06:55:54.951Z,23.96
2022-08-22T06:58:40.546Z,24.07
2022-08-22T07:01:12.932Z,24.51
2022-08-22T07:03:44.488Z,25.17
2022-08-22T07:06:17.633Z,25.84
2022-08-22T07:08:45.511Z,25.99
2022-08-22T07:11:21.730Z,26.47
2022-08-22T07:13:54.177Z,27.01
2022-08-22T07:16:39.347Z,26.85
2022-08-22T07:19:07.518Z,26.27
2022-08-22T07:21:45.701Z,26.53
2022-08-22T07:24:15.412Z,26.77
2022-08-22T07:27:08.862Z,26.66
2022-08-22T07:29:47.798Z,26.67
2022-08-22T07:32:25.550Z,26.40
2022-08-22T07:35:08.642Z,27.13
2022-08-22T07:37:42.038Z,26.55
2022-08-22T07:40:20.959Z,26.92
2022-08-22T07:42:52.723Z,26.48
2022-08-22T07:45:37.340Z,27.16
2022-08-22T07:48:26.223Z,27.17
2022-08-22T07:51:13.824Z,27.22
2022-08-22T07:53:49.583Z,27.64
2022-08-22T07:56:21.058Z,27.17
2022-08-22T07:58:53.396Z,27.36
2022-08-22T08:01:21.787Z,27.64
2022-08-22T08:03:54.758Z,28.32
2022-08-22T08:06:25.457Z,27.50
2022-08-22T08:08:53.183Z,27.99
2022-08-22T08:11:21.029Z,27.67
2022-08-22T08:13:52.350Z,27.46
2022-08-22T08:16:22.494Z,28.06
2022-08-22T08:18:50.750Z,27.83
2022-08-22T08:21:25.469Z,26.41
2022-08-22T08:23:53.385Z,26.50
2022-08-22T08:26:26.901Z,26.59
2022-08-22T08:28:55.596Z,27.12
2022-08-22T08:31:27.823Z,26.96
2022-08-22T08:34:03.304Z,27.53
2022-08-22T08:36:50.989Z,27.35
2022-08-22T08:39:18.456Z,27.41
2022-08-22T08:42:08.219Z,27.18
2022-08-22T08:44:57.163Z,26.98
2022-08-22T08:47:49.046Z,27.09
2022-08-22T08:50:55.072Z,26.37
2022-08-22T08:53:50.938Z,26.29
2022-08-22T08:56:54.479Z,26.07
2022-08-22T08:59:49.817Z,26.15
2022-08-22T09:02:40.511Z,25.11
2022-08-22T09:05:38.149Z,25.08
2022-08-22T09:08:24.664Z,25.92
2022-08-22T09:11:42.658Z,25.84
2022-08-22T09:14:21.385Z,25.07
2022-08-22T09:17:10.395Z,25.36
2022-08-22T09:20:19.399Z,25.45
2022-08-22T09:23:10.986Z,25.76
2022-08-22T09:25:45.403Z,25.10
2022-08-22T09:28:34.988Z,25.93
2022-08-22T09:31:32.723Z,26.07
2022-08-22T09:34:23.844Z,26.16
2022-08-22T09:37:15.034Z,25.19
2022-08-22T09:40:01.183Z,25.35
2022-08-22T09:42:38.006Z,25.48
2022-08-22T09:45:11.643Z,25.71
2022-08-22T09:48:06.381Z,26.35
2022-08-22T09:51:04.665Z,26.53
2022-08-22T09:54:03.382Z,27.15
2022-08-22T09:56:37.069Z,27.03
2022-08-22T09:59:22.136Z,26.77
2022-08-22T10:02:01.596Z,26.12
2022-08-22T10:04:42.489Z,27.09
2022-08-22T10:07:40.887Z,27.11
2022-08-22T10:10:11.408Z,26.77
2022-08-22T10:12:50.106Z,26.19
2022-08-22T10:15:35.894Z,27.05
2022-08-22T10:18:28.886Z,26.37
2022-08-22T10:21:21.876Z,26.67
2022-08-22T10:23:59.237Z,27.16
2022-08-22T10:26:50.961Z,27.81
2022-08-22T10:29:49.932Z,28.09
2022-08-22T10:32:38.819Z,28.31
2022-08-22T10:35:27.869Z,27.93
2022-08-22T10:37:59.766Z,28.57
2022-08-22T10:40:40.178Z,29.03
2022-08-22T10:43:20.077Z,29.54
2022-08-22T10:45:50.630Z,29.67
2022-08-22T10:48:21.236Z,29.47
2022-08-22T10:50:51.622Z,29.26
2022-08-22T10:54:00.383Z,29.92
2022-08-22T10:56:43.743Z,29.33
2022-08-22T10:59:35.992Z,28.39
2022-08-22T11:02:18.948Z,29.48
2022-08-22T11:05:11.396Z,29.26
2022-08-22T11:07:48.681Z,29.89
2022-08-22T11:10:47.754Z,30.03
2022-08-22T11:13:14.937Z,30.37
2022-08-22T11:16:04.553Z,30.38
2022-08-22T11:19:02.122Z,30.86
2022-08-22T11:21:52.278Z,30.97
2022-08-22T11:24:35.446Z,30.98
2022-08-22T11:27:37.841Z,30.88
2022-08-22T11:30:07.389Z,30.73
2022-08-22T11:32:38.207Z,30.76
2022-08-22T11:35:15.102Z,30.84
2022-08-22T11:37:56.293Z,30.87
2022-08-22T11:40:46.854Z,30.86
2022-08-22T11:43:20.620Z,30.55
2022-08-22T11:45:51.475Z,30.46
2022-08-22T11:48:24.035Z,30.36
2022-08-22T11:51:13.123Z,30.42
2022-08-22T11:53:47.790Z,30.94
2022-08-22T11:56:32.509Z,31.02
2022-08-22T11:59:02.589Z,31.00
2022-08-22T12:02:04.014Z,30.78
2022-08-22T12:04:37.731Z,31.04
2022-08-22T12:07:17.193Z,31.08
2022-08-22T12:09:52.014Z,31.26
2022-08-22T12:12:25.302Z,31.03
2022-08-22T12:15:05.310Z,31.07
2022-08-22T12:17:54.920Z,29.87
2022-08-22T12:20:45.565Z,30.52
2022-08-22T12:23:15.917Z,30.73
2022-08-22T12:26:11.456Z,30.63
2022-08-22T12:28:44.832Z,30.97
2022-08-22T12:31:34.835Z,30.68
2022-08-22T12:34:20.344Z,30.66
2022-08-22T12:36:57.597Z,31.02
2022-08-22T12:39:53.159Z,30.74
2022-08-22T12:42:38.042Z,30.69
2022-08-22T12:45:30.164Z,30.73
2022-08-22T12:48:16.496Z,30.83
2022-08-22T12:50:57.317Z,30.76
2022-08-22T12:53:44.072Z,30.97
2022-08-22T12:56:14.500Z,30.39
2022-08-22T12:58:54.309Z,30.22
2022-08-22T13:01:33.751Z,30.03
2022-08-22T13:04:03.509Z,30.36
2022-08-22T13:06:33.722Z,30.16
2022-08-22T13:09:02.248Z,29.59
2022-08-22T13:11:30.948Z,29.43
2022-08-22T13:13:59.770Z,29.40
2022-08-22T13:16:36.423Z,29.22
2022-08-22T13:19:13.466Z,28.97
2022-08-22T13:22:01.603Z,28.77
2022-08-22T13:24:38.805Z,28.40
2022-08-22T13:27:10.951Z,27.95
2022-08-22T13:29:43.215Z,27.80
2022-08-22T13:32:19.058Z,27.69
2022-08-22T13:34:53.316Z,27.60
2022-08-22T13:37:41.657Z,26.74
2022-08-22T13:40:15.734Z,27.12
2022-08-22T13:42:48.395Z,27.12
2022-08-22T13:45:24.041Z,27.25
2022-08-22T13:48:02.731Z,27.13
2022-08-22T13:50:53.569Z,27.11
2022-08-22T13:53:28.626Z,27.22
2022-08-22T13:56:01.499Z,27.20
2022-08-22T13:58:38.797Z,27.51
2022-08-22T14:01:25.422Z,26.71
2022-08-22T14:04:33.278Z,26.75
2022-08-22T14:07:06.385Z,27.00
2022-08-22T14:09:51.339Z,27.01
2022-08-22T14:12:25.193Z,26.69
2022-08-22T14:15:01.338Z,26.78
2022-08-22T14:17:42.681Z,26.42
2022-08-22T14:20:32.245Z,25.60
2022-08-22T14:23:22.774Z,26.40
2022-08-22T14:25:51.674Z,26.11
2022-08-22T14:28:38.075Z,25.02
2022-08-22T14:31:13.230Z,23.97
2022-08-22T14:33:48.060Z,24.00
2022-08-22T14:36:18.927Z,24.52
2022-08-22T14:39:06.290Z,24.56
2022-08-22T14:41:52.998Z,23.96
2022-08-22T14:44:31.323Z,24.00
2022-08-22T14:47:00.815Z,24.17
2022-08-22T14:49:48.827Z,24.14
2022-08-22T14:52:30.085Z,24.10
2022-08-22T14:55:21.548Z,24.87
2022-08-22T14:58:03.259Z,24.39
2022-08-22T15:00:39.132Z,23.89
2022-08-22T15:03:14.807Z,24.10
2022-08-22T15:06:09.826Z,24.15
2022-08-22T15:08:42.282Z,24.81
2022-08-22T15:11:21.865Z,24.58
2022-08-22T15:14:12.660Z,24.74
2022-08-22T15:16:43.023Z,24.37
2022-08-22T15:19:41.405Z,24.37
2022-08-22T15:22:19.356Z,24.12
2022-08-22T15:25:28.710Z,23.56
2022-08-22T15:27:59.858Z,24.29
2022-08-22T15:30:44.161Z,23.78
2022-08-22T15:33:21.778Z,23.63
2022-08-22T15:35:51.125Z,23.50
2022-08-22T15:38:28.985Z,23.91
2022-08-22T15:40:57.171Z,23.91
2022-08-22T15:43:35.010Z,23.00
2022-08-22T15:46:25.921Z,23.71
2022-08-22T15:49:00.974Z,23.65
2022-08-22T15:51:50.323Z,24.12
2022-08-22T15:54:25.661Z,23.72
2022-08-22T15:56:53.646Z,23.16
2022-08-22T15:59:53.805Z,23.10
2022-08-22T16:02:35.098Z,22.46
2022-08-22T16:05:09.327Z,22.55
2022-08-22T16:07:58.461Z,22.86
2022-08-22T16:10:25.893Z,22.98
2022-08-22T16:13:14.884Z,22.62
2022-08-22T16:15:52.615Z,22.62
2022-08-22T16:18:44.551Z,22.39
2022-08-22T16:21:15.842Z,21.92
2022-08-22T16:23:46.154Z,22.08
2022-08-22T16:26:45.111Z,21.43
2022-08-22T16:29:17.839Z,21.27
2022-08-22T16:31:48.849Z,21.92
2022-08-22T16:34:19.050Z,21.49
2022-08-22T16:37:08.485Z,21.50
2022-08-22T16:39:37.565Z,21.85
2022-08-22T16:42:22.396Z,21.62
2022-08-22T16:45:10.989Z,21.47
2022-08-22T16:47:52.206Z,21.59
2022-08-22T16:50:31.431Z,21.17
2022-08-22T16:53:00.321Z,21.21
2022-08-22T16:55:30.701Z,21.31
2022-08-22T16:58:19.582Z,21.87
2022-08-22T17:00:59.474Z,21.69
2022-08-22T17:03:32.785Z,21.80
2022-08-22T17:06:32.226Z,22.00
2022-08-22T17:09:27.611Z,21.46
2022-08-22T17:12:14.085Z,21.60
2022-08-22T17:14:43.774Z,21.29
2022-08-22T17:17:20.379Z,21.02
2022-08-22T17:20:07.511Z,21.31
2022-08-22T17:23:02.519Z,20.65
2022-08-22T17:25:44.963Z,21.10
2022-08-22T17:28:34.035Z,20.64
2022-08-22T17:31:16.243Z,21.03
2022-08-22T17:34:28.788Z,20.63
2022-08-22T17:37:21.645Z,21.28
2022-08-22T17:40:10.244Z,20.94
2022-08-22T17:42:40.660Z,20.84
2022-08-22T17:45:28.197Z,20.93
2022-08-22T17:48:16.678Z,21.14
2022-08-22T17:51:02.563Z,21.23
2022-08-22T17:53:41.089Z,21.29
2022-08-22T17:56:41.546Z,20.93
2022-08-22T17:59:28.168Z,21.05
2022-08-22T18:02:10.874Z,20.46
2022-08-22T18:04:56.656Z,20.31
2022-08-22T18:07:33.575Z,20.73
2022-08-22T18:10:38.324Z,21.04
2022-08-22T18:13:25.476Z,21.14
2022-08-22T18:16:12.142Z,20.92
2022-08-22T18:18:44.965Z,20.79
2022-08-22T18:21:35.442Z,20.60
2022-08-22T18:24:17.134Z,20.49
2022-08-22T18:26:51.203Z,20.96
2022-08-22T18:29:25.250Z,20.45
2022-08-22T18:32:11.610Z,20.37
2022-08-22T18:35:04.077Z,20.36
2022-08-22T18:37:31.781Z,20.34
2022-08-22T18:40:27.151Z,20.17
2022-08-22T18:42:58.213Z,20.31
2022-08-22T18:45:44.706Z,20.09
2022-08-22T18:48:20.814Z,20.70
2022-08-22T18:50:48.496Z,20.27
2022-08-22T18:53:37.299Z,20.37
2022-08-22T18:56:20.428Z,20.37
2022-08-22T18:59:05.491Z,20.09
2022-08-22T19:02:11.009Z,20.40
2022-08-22T19:04:50.949Z,20.22
2022-08-22T19:07:30.879Z,20.40
2022-08-22T19:10:34.388Z,20.29
2022-08-22T19:13:39.463Z,21.20
2022-08-22T19:16:19.063Z,20.61
2022-08-22T19:18:58.422Z,20.16
2022-08-22T19:21:47.901Z,20.29
2022-08-22T19:24:27.609Z,20.81
2022-08-22T19:27:07.281Z,20.51
2022-08-22T19:29:34.568Z,21.02
2022-08-22T19:32:11.870Z,20.58
2022-08-22T19:34:41.814Z,20.80
2022-08-22T19:37:32.281Z,20.37
2022-08-22T19:40:10.988Z,20.38
2022-08-22T19:42:39.940Z,19.82
2022-08-22T19:45:26.566Z,20.44
2022-08-22T19:47:59.792Z,20.57
2022-08-22T19:50:35.473Z,20.54
2022-08-22T19:53:24.602Z,20.43
2022-08-22T19:56:17.581Z,20.83
2022-08-22T19:59:11.364Z,20.84
2022-08-22T20:02:01.563Z,20.55
2022-08-22T20:04:47.021Z,20.97
2022-08-22T20:07:42.189Z,21.19
2022-08-22T20:10:51.946Z,20.15
2022-08-22T20:13:24.282Z,19.85
2022-08-22T20:16:44.270Z,19.83
2022-08-22T20:19:12.091Z,19.96
2022-08-22T20:21:48.334Z,20.44
2022-08-22T20:24:39.583Z,20.42
2022-08-22T20:27:17.321Z,20.15
2022-08-22T20:29:55.121Z,20.38
2022-08-22T20:32:23.700Z,20.66
2022-08-22T20:34:54.505Z,20.46
2022-08-22T20:37:40.407Z,20.16
2022-08-22T20:40:56.318Z,20.11
2022-08-22T20:43:39.534Z,20.15
2022-08-22T20:46:35.597Z,20.02
2022-08-22T20:49:02.954Z,20.24
2022-08-22T20:51:31.546Z,20.22
2022-08-22T20:54:10.073Z,19.89
2022-08-22T20:56:54.457Z,20.10
2022-08-22T20:59:30.643Z,20.50
2022-08-22T21:02:07.303Z,20.08
2022-08-22T21:04:49.660Z,20.45
2022-08-22T21:07:22.318Z,19.94
2022-08-22T21:10:27.383Z,19.99
2022-08-22T21:13:11.054Z,19.98
2022-08-22T21:15:43.896Z,20.64
2022-08-22T21:18:13.139Z,20.50
2022-08-22T21:20:40.574Z,19.86
2022-08-22T21:23:14.465Z,20.28
2022-08-22T21:25:57.969Z,20.37
2022-08-22T21:28:57.579Z,20.07
2022-08-22T21:31:31.153Z,19.63
2022-08-22T21:33:58.765Z,19.32
2022-08-22T21:36:29.348Z,19.55
2022-08-22T21:39:03.713Z,19.48
2022-08-22T21:41:38.952Z,19.34
2022-08-22T21:44:30.682Z,19.96
2022-08-22T21:47:33.599Z,20.17
2022-08-22T21:50:13.124Z,19.30
2022-08-22T21:52:59.788Z,19.55
2022-08-22T21:55:34.377Z,20.10
2022-08-22T21:58:05.016Z,20.11
2022-08-22T22:00:54.854Z,19.78
2022-08-22T22:03:24.968Z,19.53
2022-08-22T22:05:54.708Z,19.32
2022-08-22T22:08:22.078Z,20.14
2022-08-22T22:10:50.082Z,20.25
2022-08-22T22:13:18.880Z,19.97
2022-08-22T22:15:46.925Z,20.52
2022-08-22T22:18:16.319Z,20.51
2022-08-22T22:20:46.817Z,19.93
2022-08-22T22:23:14.324Z,20.41
2022-08-22T22:25:42.421Z,20.57
2022-08-22T22:28:13.930Z,20.36
2022-08-22T22:30:41.644Z,20.29
2022-08-22T22:33:09.556Z,19.74
2022-08-22T22:35:40.608Z,20.33
2022-08-22T22:38:08.436Z,20.08
2022-08-22T22:40:35.852Z,19.94
2022-08-22T22:43:03.269Z,20.32
2022-08-22T22:45:30.896Z,20.45
2022-08-22T22:47:58.374Z,20.51
2022-08-22T22:50:26.092Z,20.13
2022-08-22T22:52:54.183Z,20.00
2022-08-22T22:55:24.969Z,20.05
2022-08-22T22:57:59.001Z,20.38
2022-08-22T23:00:30.952Z,20.42
2022-08-22T23:03:00.471Z,19.94
2022-08-22T23:05:29.452Z,20.17
2022-08-22T23:07:57.237Z,20.20
2022-08-22T23:10:25.330Z,20.15
2022-08-22T23:12:53.006Z,19.81
2022-08-22T23:15:20.396Z,19.87
2022-08-22T23:17:47.884Z,20.19
2022-08-22T23:20:15.481Z,19.81
2022-08-22T23:22:44.986Z,20.20
2022-08-22T23:25:12.394Z,20.63
2022-08-22T23:27:40.146Z,20.39
2022-08-22T23:30:09.122Z,20.60
2022-08-22T23:32:36.982Z,21.10
2022-08-22T23:35:05.152Z,20.68
2022-08-22T23:37:32.525Z,20.13
2022-08-22T23:39:59.992Z,19.74
2022-08-22T23:42:29.330Z,20.14
2022-08-22T23:44:56.707Z,20.10
2022-08-22T23:47:24.124Z,20.58
2022-08-22T23:49:51.725Z,20.19
2022-08-22T23:52:19.100Z,19.69
2022-08-22T23:54:46.508Z,20.06
2022-08-22T23:57:14.683Z,20.28
2022-08-22T23:59:48.585Z,20.16
